M/y Arion — 9HB2161 — position and weather

sailwx.info

Track history (hours):
 
Tides and Currents Weather Stations Pressure Air Temp Water Temp Dewpoint Dewpoint Depression Visibility Wind Speed Wind Dir Waves Ship Positions

M/y Arion

Last reported at 2014-Dec-10 16:33 UTC. Time now 2014-Dec-19 14:25 UTC.
Position N 43°31' E 007°02'.
Warning: this ship's position is 8 days out of date.

Length 37 m; draft 2.2 m.

Type: Other ship. MMSI: 215479000.

Date/timePositionNaut miles runAvg speedWind from/ knotsBaromVisibWave heightAir tempDewpointWater temp
2014-Dec-10 16:33N 43°31' E 007°02'7 6.8
2014-Dec-10 15:33N 43°33' E 007°11'  
2014-Dec-07 16:06N 43°43' E 007°24'3 5.3
2014-Dec-07 15:33N 43°42' E 007°20'0 0.0
2014-Dec-07 14:32N 43°42' E 007°20'0 0.0
2014-Dec-07 13:32N 43°42' E 007°20'0 0.0
2014-Dec-07 12:33N 43°42' E 007°20'1 1.3
2014-Dec-07 11:32N 43°42' E 007°22'4 0.1
2014-Dec-05 09:29N 43°44' E 007°26'1213.5
2014-Dec-05 08:33N 43°36' E 007°14'10 8.7
2014-Dec-05 07:27N 43°33' E 007°01'  
Track history (hours):
 
Tides and Currents Weather Stations Pressure Air Temp Water Temp Dewpoint Dewpoint Depression Visibility Wind Speed Wind Dir Waves Ship Positions

M/y Arion

Last reported at 2014-Dec-10 16:33 UTC. Time now 2014-Dec-19 14:25 UTC.
Position N 43°31' E 007°02'.
Warning: this ship's position is 8 days out of date.

Length 37 m; draft 2.2 m.

Type: Other ship. MMSI: 215479000.

Date/timePositionNaut miles runAvg speedWind from/ knotsBaromVisibWave heightAir tempDewpointWater temp
2014-Dec-10 16:33N 43°31' E 007°02'7 6.8
2014-Dec-10 15:33N 43°33' E 007°11'  
2014-Dec-07 16:06N 43°43' E 007°24'3 5.3
2014-Dec-07 15:33N 43°42' E 007°20'0 0.0
2014-Dec-07 14:32N 43°42' E 007°20'0 0.0
2014-Dec-07 13:32N 43°42' E 007°20'0 0.0
2014-Dec-07 12:33N 43°42' E 007°20'1 1.3
2014-Dec-07 11:32N 43°42' E 007°22'4 0.1
2014-Dec-05 09:29N 43°44' E 007°26'1213.5
2014-Dec-05 08:33N 43°36' E 007°14'10 8.7
2014-Dec-05 07:27N 43°33' E 007°01'  

Dump ship's entire track history